sensor_id;sensor_type;location;lat;lon;timestamp;temperature;humidity
69054;DHT22;56125;52.242;4.756;2023-10-19T00:04:01;18.70;63.20
69054;DHT22;56125;52.242;4.756;2023-10-19T00:09:02;18.70;63.20
69054;DHT22;56125;52.242;4.756;2023-10-19T00:14:04;18.60;63.30
69054;DHT22;56125;52.242;4.756;2023-10-19T00:19:05;18.70;63.30
69054;DHT22;56125;52.242;4.756;2023-10-19T00:24:06;18.60;63.30
69054;DHT22;56125;52.242;4.756;2023-10-19T00:29:07;18.60;63.40
69054;DHT22;56125;52.242;4.756;2023-10-19T00:34:31;18.60;63.50
69054;DHT22;56125;52.242;4.756;2023-10-19T00:39:32;18.60;63.50
69054;DHT22;56125;52.242;4.756;2023-10-19T00:44:41;18.60;63.50
69054;DHT22;56125;52.242;4.756;2023-10-19T00:49:43;18.60;63.70
69054;DHT22;56125;52.242;4.756;2023-10-19T00:54:46;18.60;63.70
69054;DHT22;56125;52.242;4.756;2023-10-19T00:59:49;18.60;63.70
69054;DHT22;56125;52.242;4.756;2023-10-19T01:04:56;18.60;63.60
69054;DHT22;56125;52.242;4.756;2023-10-19T01:10:01;18.60;63.80
69054;DHT22;56125;52.242;4.756;2023-10-19T01:15:17;18.60;63.80
69054;DHT22;56125;52.242;4.756;2023-10-19T01:20:21;18.60;63.90
69054;DHT22;56125;52.242;4.756;2023-10-19T01:25:24;18.50;63.90
69054;DHT22;56125;52.242;4.756;2023-10-19T01:30:35;18.50;63.90
69054;DHT22;56125;52.242;4.756;2023-10-19T01:35:37;18.60;64.00
69054;DHT22;56125;52.242;4.756;2023-10-19T01:40:57;18.50;64.10
69054;DHT22;56125;52.242;4.756;2023-10-19T01:46:01;18.50;64.10
69054;DHT22;56125;52.242;4.756;2023-10-19T01:51:14;18.50;64.10
69054;DHT22;56125;52.242;4.756;2023-10-19T01:56:16;18.50;64.10
69054;DHT22;56125;52.242;4.756;2023-10-19T02:01:18;18.50;64.20
69054;DHT22;56125;52.242;4.756;2023-10-19T02:06:29;18.50;64.30
69054;DHT22;56125;52.242;4.756;2023-10-19T02:11:41;18.50;64.50
69054;DHT22;56125;52.242;4.756;2023-10-19T02:16:44;18.50;64.50
69054;DHT22;56125;52.242;4.756;2023-10-19T02:22:01;18.50;64.60
69054;DHT22;56125;52.242;4.756;2023-10-19T02:27:08;18.50;64.60
69054;DHT22;56125;52.242;4.756;2023-10-19T02:32:09;18.50;65.00
69054;DHT22;56125;52.242;4.756;2023-10-19T02:37:11;18.50;64.90
69054;DHT22;56125;52.242;4.756;2023-10-19T02:42:12;18.50;65.00
69054;DHT22;56125;52.242;4.756;2023-10-19T02:47:13;18.50;65.30
69054;DHT22;56125;52.242;4.756;2023-10-19T02:52:14;18.50;65.30
69054;DHT22;56125;52.242;4.756;2023-10-19T02:57:17;18.50;65.40
69054;DHT22;56125;52.242;4.756;2023-10-19T03:02:18;18.50;65.40
69054;DHT22;56125;52.242;4.756;2023-10-19T03:07:19;18.50;65.50
69054;DHT22;56125;52.242;4.756;2023-10-19T03:12:20;18.50;65.70
69054;DHT22;56125;52.242;4.756;2023-10-19T03:17:21;18.50;65.90
69054;DHT22;56125;52.242;4.756;2023-10-19T03:22:22;18.50;65.80
69054;DHT22;56125;52.242;4.756;2023-10-19T03:27:23;18.50;65.90
69054;DHT22;56125;52.242;4.756;2023-10-19T03:32:25;18.60;66.10
69054;DHT22;56125;52.242;4.756;2023-10-19T03:37:33;18.50;66.10
69054;DHT22;56125;52.242;4.756;2023-10-19T03:42:37;18.60;66.00
69054;DHT22;56125;52.242;4.756;2023-10-19T03:47:47;18.50;66.20
69054;DHT22;56125;52.242;4.756;2023-10-19T03:52:50;18.50;66.30
69054;DHT22;56125;52.242;4.756;2023-10-19T03:57:52;18.50;66.30
69054;DHT22;56125;52.242;4.756;2023-10-19T04:02:55;18.60;66.40
69054;DHT22;56125;52.242;4.756;2023-10-19T04:07:56;18.50;66.30
69054;DHT22;56125;52.242;4.756;2023-10-19T04:12:58;18.60;66.40
69054;DHT22;56125;52.242;4.756;2023-10-19T04:18:02;18.60;66.30
69054;DHT22;56125;52.242;4.756;2023-10-19T04:23:09;18.50;66.20
69054;DHT22;56125;52.242;4.756;2023-10-19T04:28:16;18.50;66.60
69054;DHT22;56125;52.242;4.756;2023-10-19T04:33:21;18.50;66.40
69054;DHT22;56125;52.242;4.756;2023-10-19T04:38:23;18.50;66.40
69054;DHT22;56125;52.242;4.756;2023-10-19T04:43:24;18.50;67.40
69054;DHT22;56125;52.242;4.756;2023-10-19T04:48:25;18.50;66.30
69054;DHT22;56125;52.242;4.756;2023-10-19T04:53:26;18.50;66.40
69054;DHT22;56125;52.242;4.756;2023-10-19T04:58:28;18.50;67.40
69054;DHT22;56125;52.242;4.756;2023-10-19T05:03:29;18.50;66.20
69054;DHT22;56125;52.242;4.756;2023-10-19T05:08:30;18.50;66.40
69054;DHT22;56125;52.242;4.756;2023-10-19T05:13:35;18.50;66.40
69054;DHT22;56125;52.242;4.756;2023-10-19T05:18:36;18.50;66.40
69054;DHT22;56125;52.242;4.756;2023-10-19T05:23:37;18.50;66.40
69054;DHT22;56125;52.242;4.756;2023-10-19T05:28:38;18.50;66.20
69054;DHT22;56125;52.242;4.756;2023-10-19T05:33:39;18.50;66.10
69054;DHT22;56125;52.242;4.756;2023-10-19T05:38:40;18.50;66.00
69054;DHT22;56125;52.242;4.756;2023-10-19T05:43:41;18.50;65.60
69054;DHT22;56125;52.242;4.756;2023-10-19T05:48:43;18.60;65.70
69054;DHT22;56125;52.242;4.756;2023-10-19T05:53:44;18.60;65.60
69054;DHT22;56125;52.242;4.756;2023-10-19T05:58:45;18.60;65.50
69054;DHT22;56125;52.242;4.756;2023-10-19T06:03:49;18.60;65.40
69054;DHT22;56125;52.242;4.756;2023-10-19T06:08:51;18.60;65.50
69054;DHT22;56125;52.242;4.756;2023-10-19T06:13:54;18.60;65.50
69054;DHT22;56125;52.242;4.756;2023-10-19T06:18:55;18.60;65.30
69054;DHT22;56125;52.242;4.756;2023-10-19T06:23:56;18.50;65.60
69054;DHT22;56125;52.242;4.756;2023-10-19T06:28:57;18.60;65.40
69054;DHT22;56125;52.242;4.756;2023-10-19T06:34:02;18.60;65.30
69054;DHT22;56125;52.242;4.756;2023-10-19T06:39:03;18.60;65.30
69054;DHT22;56125;52.242;4.756;2023-10-19T06:44:06;18.60;65.20
69054;DHT22;56125;52.242;4.756;2023-10-19T06:49:07;18.60;65.20
69054;DHT22;56125;52.242;4.756;2023-10-19T06:54:08;18.60;65.40
69054;DHT22;56125;52.242;4.756;2023-10-19T06:59:09;18.60;65.10
69054;DHT22;56125;52.242;4.756;2023-10-19T07:04:10;18.60;65.20
69054;DHT22;56125;52.242;4.756;2023-10-19T07:09:12;18.60;65.20
69054;DHT22;56125;52.242;4.756;2023-10-19T07:14:13;18.60;65.20
69054;DHT22;56125;52.242;4.756;2023-10-19T07:19:14;18.60;65.20
69054;DHT22;56125;52.242;4.756;2023-10-19T07:24:17;18.60;65.20
69054;DHT22;56125;52.242;4.756;2023-10-19T07:29:20;18.60;65.00
69054;DHT22;56125;52.242;4.756;2023-10-19T07:34:21;18.60;65.00
69054;DHT22;56125;52.242;4.756;2023-10-19T07:39:26;18.60;65.10
69054;DHT22;56125;52.242;4.756;2023-10-19T07:44:30;18.60;65.20
69054;DHT22;56125;52.242;4.756;2023-10-19T07:49:31;18.60;65.00
69054;DHT22;56125;52.242;4.756;2023-10-19T07:54:33;18.60;65.00
69054;DHT22;56125;52.242;4.756;2023-10-19T07:59:35;18.60;65.10
69054;DHT22;56125;52.242;4.756;2023-10-19T08:04:36;18.60;65.00
69054;DHT22;56125;52.242;4.756;2023-10-19T08:09:37;18.60;65.00
69054;DHT22;56125;52.242;4.756;2023-10-19T08:14:39;18.60;65.20
69054;DHT22;56125;52.242;4.756;2023-10-19T08:19:40;18.60;65.10
69054;DHT22;56125;52.242;4.756;2023-10-19T08:24:42;18.60;65.10
69054;DHT22;56125;52.242;4.756;2023-10-19T08:29:50;18.60;65.20
69054;DHT22;56125;52.242;4.756;2023-10-19T08:34:51;18.60;65.20
69054;DHT22;56125;52.242;4.756;2023-10-19T08:39:53;18.60;65.20
69054;DHT22;56125;52.242;4.756;2023-10-19T08:44:54;18.60;65.00
69054;DHT22;56125;52.242;4.756;2023-10-19T08:49:55;18.60;65.20
69054;DHT22;56125;52.242;4.756;2023-10-19T08:54:56;18.60;65.20
69054;DHT22;56125;52.242;4.756;2023-10-19T08:59:57;18.70;65.30
69054;DHT22;56125;52.242;4.756;2023-10-19T09:05:06;18.60;65.30
69054;DHT22;56125;52.242;4.756;2023-10-19T09:10:07;18.70;65.30
69054;DHT22;56125;52.242;4.756;2023-10-19T09:15:23;18.70;65.50
69054;DHT22;56125;52.242;4.756;2023-10-19T09:20:24;18.70;65.60
69054;DHT22;56125;52.242;4.756;2023-10-19T09:25:28;18.70;65.50
69054;DHT22;56125;52.242;4.756;2023-10-19T09:30:30;18.70;65.60
69054;DHT22;56125;52.242;4.756;2023-10-19T09:35:34;18.70;65.90
69054;DHT22;56125;52.242;4.756;2023-10-19T09:40:39;18.70;66.10
69054;DHT22;56125;52.242;4.756;2023-10-19T09:45:41;18.70;65.70
69054;DHT22;56125;52.242;4.756;2023-10-19T09:50:53;18.70;66.00
69054;DHT22;56125;52.242;4.756;2023-10-19T09:55:59;18.70;65.90
69054;DHT22;56125;52.242;4.756;2023-10-19T10:01:01;18.70;67.30
69054;DHT22;56125;52.242;4.756;2023-10-19T10:06:03;18.70;66.10
69054;DHT22;56125;52.242;4.756;2023-10-19T10:11:17;18.70;65.80
69054;DHT22;56125;52.242;4.756;2023-10-19T10:16:24;18.70;65.70
69054;DHT22;56125;52.242;4.756;2023-10-19T10:21:26;18.80;65.80
69054;DHT22;56125;52.242;4.756;2023-10-19T10:26:30;18.80;66.50
69054;DHT22;56125;52.242;4.756;2023-10-19T10:31:37;18.80;66.40
69054;DHT22;56125;52.242;4.756;2023-10-19T10:37:00;18.70;66.40
69054;DHT22;56125;52.242;4.756;2023-10-19T10:42:10;18.70;66.10
69054;DHT22;56125;52.242;4.756;2023-10-19T10:47:19;18.70;66.30
69054;DHT22;56125;52.242;4.756;2023-10-19T10:52:36;18.80;66.70
69054;DHT22;56125;52.242;4.756;2023-10-19T10:57:38;18.80;66.80
69054;DHT22;56125;52.242;4.756;2023-10-19T11:02:39;18.80;67.00
69054;DHT22;56125;52.242;4.756;2023-10-19T11:08:02;18.80;67.00
69054;DHT22;56125;52.242;4.756;2023-10-19T11:13:08;18.80;66.40
69054;DHT22;56125;52.242;4.756;2023-10-19T11:18:09;18.80;66.30
69054;DHT22;56125;52.242;4.756;2023-10-19T11:23:10;18.80;66.80
69054;DHT22;56125;52.242;4.756;2023-10-19T11:28:16;18.90;66.80
69054;DHT22;56125;52.242;4.756;2023-10-19T11:33:18;18.80;66.80
69054;DHT22;56125;52.242;4.756;2023-10-19T11:38:24;18.90;67.20
69054;DHT22;56125;52.242;4.756;2023-10-19T11:43:25;18.90;67.20
69054;DHT22;56125;52.242;4.756;2023-10-19T11:48:26;18.90;66.80
69054;DHT22;56125;52.242;4.756;2023-10-19T11:53:35;18.90;67.20
69054;DHT22;56125;52.242;4.756;2023-10-19T11:58:37;18.90;67.00
69054;DHT22;56125;52.242;4.756;2023-10-19T12:03:41;19.00;67.40
69054;DHT22;56125;52.242;4.756;2023-10-19T12:08:44;18.90;67.40
69054;DHT22;56125;52.242;4.756;2023-10-19T12:13:46;19.00;67.40
69054;DHT22;56125;52.242;4.756;2023-10-19T12:18:47;18.90;67.00
69054;DHT22;56125;52.242;4.756;2023-10-19T12:23:51;18.90;67.00
69054;DHT22;56125;52.242;4.756;2023-10-19T12:28:55;18.90;67.50
69054;DHT22;56125;52.242;4.756;2023-10-19T12:33:56;19.00;67.10
69054;DHT22;56125;52.242;4.756;2023-10-19T12:38:58;18.90;67.60
69054;DHT22;56125;52.242;4.756;2023-10-19T12:43:59;18.90;67.70
69054;DHT22;56125;52.242;4.756;2023-10-19T12:49:08;18.90;67.50
69054;DHT22;56125;52.242;4.756;2023-10-19T12:54:14;18.90;67.50
69054;DHT22;56125;52.242;4.756;2023-10-19T12:59:15;18.90;67.40
69054;DHT22;56125;52.242;4.756;2023-10-19T13:04:19;18.90;67.70
69054;DHT22;56125;52.242;4.756;2023-10-19T13:09:25;19.00;67.80
69054;DHT22;56125;52.242;4.756;2023-10-19T13:14:33;18.90;67.50
69054;DHT22;56125;52.242;4.756;2023-10-19T13:19:35;19.00;67.70
69054;DHT22;56125;52.242;4.756;2023-10-19T13:24:38;19.00;67.00
69054;DHT22;56125;52.242;4.756;2023-10-19T13:29:42;18.90;67.90
69054;DHT22;56125;52.242;4.756;2023-10-19T13:34:43;19.00;68.00
69054;DHT22;56125;52.242;4.756;2023-10-19T13:39:44;18.90;67.60
69054;DHT22;56125;52.242;4.756;2023-10-19T13:44:46;18.90;67.70
69054;DHT22;56125;52.242;4.756;2023-10-19T13:49:47;19.00;68.00
69054;DHT22;56125;52.242;4.756;2023-10-19T13:54:48;19.00;67.60
69054;DHT22;56125;52.242;4.756;2023-10-19T13:59:50;18.90;68.20
69054;DHT22;56125;52.242;4.756;2023-10-19T14:04:51;18.90;67.90
69054;DHT22;56125;52.242;4.756;2023-10-19T14:09:53;18.90;68.00
69054;DHT22;56125;52.242;4.756;2023-10-19T14:14:54;18.90;68.00
69054;DHT22;56125;52.242;4.756;2023-10-19T14:19:55;19.00;68.30
69054;DHT22;56125;52.242;4.756;2023-10-19T14:24:56;19.00;68.30
69054;DHT22;56125;52.242;4.756;2023-10-19T14:29:57;19.00;68.10
69054;DHT22;56125;52.242;4.756;2023-10-19T14:34:58;19.00;68.30
69054;DHT22;56125;52.242;4.756;2023-10-19T14:40:00;19.00;68.10
69054;DHT22;56125;52.242;4.756;2023-10-19T14:45:01;19.00;68.30
69054;DHT22;56125;52.242;4.756;2023-10-19T14:50:02;18.90;68.20
69054;DHT22;56125;52.242;4.756;2023-10-19T14:55:04;19.00;68.10
69054;DHT22;56125;52.242;4.756;2023-10-19T15:00:09;19.00;67.90
69054;DHT22;56125;52.242;4.756;2023-10-19T15:05:16;19.00;67.20
69054;DHT22;56125;52.242;4.756;2023-10-19T15:10:27;19.00;67.70
69054;DHT22;56125;52.242;4.756;2023-10-19T15:15:29;19.00;67.90
69054;DHT22;56125;52.242;4.756;2023-10-19T15:20:30;19.00;67.70
69054;DHT22;56125;52.242;4.756;2023-10-19T15:25:32;19.00;68.20
69054;DHT22;56125;52.242;4.756;2023-10-19T15:30:33;19.00;67.90
69054;DHT22;56125;52.242;4.756;2023-10-19T15:35:34;19.00;68.10
69054;DHT22;56125;52.242;4.756;2023-10-19T15:40:37;19.00;68.30
69054;DHT22;56125;52.242;4.756;2023-10-19T15:45:42;19.00;68.60
69054;DHT22;56125;52.242;4.756;2023-10-19T15:50:44;19.00;68.70
69054;DHT22;56125;52.242;4.756;2023-10-19T15:55:45;19.00;68.50
69054;DHT22;56125;52.242;4.756;2023-10-19T16:00:46;19.00;68.40
69054;DHT22;56125;52.242;4.756;2023-10-19T16:05:47;19.00;68.40
69054;DHT22;56125;52.242;4.756;2023-10-19T16:10:48;19.00;67.90
69054;DHT22;56125;52.242;4.756;2023-10-19T16:15:52;19.00;67.30
69054;DHT22;56125;52.242;4.756;2023-10-19T16:20:53;19.00;67.40
69054;DHT22;56125;52.242;4.756;2023-10-19T16:25:59;19.00;67.30
69054;DHT22;56125;52.242;4.756;2023-10-19T16:31:03;19.00;68.60
69054;DHT22;56125;52.242;4.756;2023-10-19T16:36:05;19.00;66.50
69054;DHT22;56125;52.242;4.756;2023-10-19T16:41:06;19.00;67.80
69054;DHT22;56125;52.242;4.756;2023-10-19T16:46:07;19.00;67.10
69054;DHT22;56125;52.242;4.756;2023-10-19T16:51:08;19.00;67.20
69054;DHT22;56125;52.242;4.756;2023-10-19T16:56:09;19.00;67.40
69054;DHT22;56125;52.242;4.756;2023-10-19T17:01:10;19.00;67.50
69054;DHT22;56125;52.242;4.756;2023-10-19T17:06:11;19.00;68.10
69054;DHT22;56125;52.242;4.756;2023-10-19T17:11:12;19.00;68.00
69054;DHT22;56125;52.242;4.756;2023-10-19T17:16:13;19.00;67.30
69054;DHT22;56125;52.242;4.756;2023-10-19T17:21:15;19.00;67.30
69054;DHT22;56125;52.242;4.756;2023-10-19T17:26:16;19.00;66.80
69054;DHT22;56125;52.242;4.756;2023-10-19T17:31:17;19.00;67.90
69054;DHT22;56125;52.242;4.756;2023-10-19T17:36:18;19.00;68.60
69054;DHT22;56125;52.242;4.756;2023-10-19T17:41:20;19.10;68.90
69054;DHT22;56125;52.242;4.756;2023-10-19T17:46:21;19.10;67.80
69054;DHT22;56125;52.242;4.756;2023-10-19T17:51:22;19.10;69.90
69054;DHT22;56125;52.242;4.756;2023-10-19T17:56:24;19.00;70.50
69054;DHT22;56125;52.242;4.756;2023-10-19T18:01:25;19.00;70.70
69054;DHT22;56125;52.242;4.756;2023-10-19T18:06:26;19.00;71.20
69054;DHT22;56125;52.242;4.756;2023-10-19T18:11:27;19.00;71.40
69054;DHT22;56125;52.242;4.756;2023-10-19T18:16:28;19.00;71.40
69054;DHT22;56125;52.242;4.756;2023-10-19T18:21:29;19.00;71.70
69054;DHT22;56125;52.242;4.756;2023-10-19T18:26:32;19.00;71.50
69054;DHT22;56125;52.242;4.756;2023-10-19T18:31:33;19.00;71.90
69054;DHT22;56125;52.242;4.756;2023-10-19T18:36:34;19.00;71.90
69054;DHT22;56125;52.242;4.756;2023-10-19T18:41:35;19.00;71.30
69054;DHT22;56125;52.242;4.756;2023-10-19T18:46:36;19.00;71.80
69054;DHT22;56125;52.242;4.756;2023-10-19T18:51:37;19.00;71.80
69054;DHT22;56125;52.242;4.756;2023-10-19T18:56:39;19.00;71.80
69054;DHT22;56125;52.242;4.756;2023-10-19T19:01:41;19.00;71.90
69054;DHT22;56125;52.242;4.756;2023-10-19T19:06:42;19.00;72.40
69054;DHT22;56125;52.242;4.756;2023-10-19T19:11:44;19.00;72.20
69054;DHT22;56125;52.242;4.756;2023-10-19T19:16:46;19.00;72.30
69054;DHT22;56125;52.242;4.756;2023-10-19T19:21:47;19.00;72.40
69054;DHT22;56125;52.242;4.756;2023-10-19T19:26:50;19.00;72.70
69054;DHT22;56125;52.242;4.756;2023-10-19T19:31:51;19.00;72.50
69054;DHT22;56125;52.242;4.756;2023-10-19T19:36:52;19.00;72.50
69054;DHT22;56125;52.242;4.756;2023-10-19T19:41:53;19.00;72.90
69054;DHT22;56125;52.242;4.756;2023-10-19T19:46:54;19.00;72.50
69054;DHT22;56125;52.242;4.756;2023-10-19T19:51:55;19.00;72.80
69054;DHT22;56125;52.242;4.756;2023-10-19T19:56:56;19.00;72.90
69054;DHT22;56125;52.242;4.756;2023-10-19T20:01:57;19.00;72.80
69054;DHT22;56125;52.242;4.756;2023-10-19T20:06:58;19.00;72.80
69054;DHT22;56125;52.242;4.756;2023-10-19T20:11:59;19.00;72.80
69054;DHT22;56125;52.242;4.756;2023-10-19T20:17:00;19.00;72.80
69054;DHT22;56125;52.242;4.756;2023-10-19T20:22:01;19.00;72.70
69054;DHT22;56125;52.242;4.756;2023-10-19T20:27:04;19.00;72.70
69054;DHT22;56125;52.242;4.756;2023-10-19T20:32:05;19.00;72.90
69054;DHT22;56125;52.242;4.756;2023-10-19T20:37:06;19.00;72.90
69054;DHT22;56125;52.242;4.756;2023-10-19T20:42:07;19.00;72.70
69054;DHT22;56125;52.242;4.756;2023-10-19T20:47:09;19.00;72.90
69054;DHT22;56125;52.242;4.756;2023-10-19T20:52:10;19.00;73.00
69054;DHT22;56125;52.242;4.756;2023-10-19T20:57:11;19.00;73.10
69054;DHT22;56125;52.242;4.756;2023-10-19T21:02:12;19.00;73.10
69054;DHT22;56125;52.242;4.756;2023-10-19T21:07:13;19.00;73.10
69054;DHT22;56125;52.242;4.756;2023-10-19T21:12:14;19.00;72.80
69054;DHT22;56125;52.242;4.756;2023-10-19T21:17:18;19.00;73.10
69054;DHT22;56125;52.242;4.756;2023-10-19T21:22:19;19.00;72.90
69054;DHT22;56125;52.242;4.756;2023-10-19T21:27:20;19.00;73.20
69054;DHT22;56125;52.242;4.756;2023-10-19T21:32:21;19.00;73.00
69054;DHT22;56125;52.242;4.756;2023-10-19T21:37:22;19.00;73.10
69054;DHT22;56125;52.242;4.756;2023-10-19T21:42:23;19.00;73.20
69054;DHT22;56125;52.242;4.756;2023-10-19T21:47:24;19.00;73.20
69054;DHT22;56125;52.242;4.756;2023-10-19T21:52:26;19.00;73.20
69054;DHT22;56125;52.242;4.756;2023-10-19T21:57:27;19.00;73.20
69054;DHT22;56125;52.242;4.756;2023-10-19T22:02:31;19.00;73.20
69054;DHT22;56125;52.242;4.756;2023-10-19T22:07:32;19.00;73.20
69054;DHT22;56125;52.242;4.756;2023-10-19T22:12:33;19.00;73.30
69054;DHT22;56125;52.242;4.756;2023-10-19T22:17:34;19.00;73.10
69054;DHT22;56125;52.242;4.756;2023-10-19T22:22:35;19.00;73.30
69054;DHT22;56125;52.242;4.756;2023-10-19T22:27:36;19.00;73.20
69054;DHT22;56125;52.242;4.756;2023-10-19T22:32:37;19.00;73.30
69054;DHT22;56125;52.242;4.756;2023-10-19T22:37:38;19.00;73.30
69054;DHT22;56125;52.242;4.756;2023-10-19T22:42:40;19.00;73.10
69054;DHT22;56125;52.242;4.756;2023-10-19T22:47:44;19.00;73.20
69054;DHT22;56125;52.242;4.756;2023-10-19T22:52:45;19.00;73.20
69054;DHT22;56125;52.242;4.756;2023-10-19T22:57:46;19.00;73.10
69054;DHT22;56125;52.242;4.756;2023-10-19T23:02:51;19.00;73.40
69054;DHT22;56125;52.242;4.756;2023-10-19T23:07:52;19.00;73.00
69054;DHT22;56125;52.242;4.756;2023-10-19T23:12:54;19.00;73.20
69054;DHT22;56125;52.242;4.756;2023-10-19T23:17:57;18.90;73.00
69054;DHT22;56125;52.242;4.756;2023-10-19T23:23:00;19.00;73.30
69054;DHT22;56125;52.242;4.756;2023-10-19T23:28:11;18.90;73.00
69054;DHT22;56125;52.242;4.756;2023-10-19T23:33:13;19.00;73.10
69054;DHT22;56125;52.242;4.756;2023-10-19T23:38:14;18.90;73.10
69054;DHT22;56125;52.242;4.756;2023-10-19T23:43:15;18.90;73.10
69054;DHT22;56125;52.242;4.756;2023-10-19T23:48:16;18.90;73.10
69054;DHT22;56125;52.242;4.756;2023-10-19T23:53:20;18.90;73.00
69054;DHT22;56125;52.242;4.756;2023-10-19T23:58:22;19.00;73.00
